createdAt,value
2022-08-28T00:00:49.584Z,26.60
2022-08-28T00:03:19.775Z,26.60
2022-08-28T00:05:48.072Z,26.50
2022-08-28T00:08:16.705Z,26.60
2022-08-28T00:10:45.415Z,26.60
2022-08-28T00:13:18.609Z,26.60
2022-08-28T00:15:47.499Z,26.50
2022-08-28T00:18:15.753Z,26.50
2022-08-28T00:20:46.474Z,26.60
2022-08-28T00:23:14.817Z,26.80
2022-08-28T00:25:43.064Z,26.60
2022-08-28T00:28:24.263Z,26.60
2022-08-28T00:30:54.314Z,26.60
2022-08-28T00:33:23.815Z,26.50
2022-08-28T00:35:53.456Z,26.50
2022-08-28T00:38:22.819Z,26.50
2022-08-28T00:40:54.789Z,26.60
2022-08-28T00:43:27.764Z,26.50
2022-08-28T00:45:55.919Z,26.50
2022-08-28T00:48:24.148Z,26.60
2022-08-28T00:51:11.024Z,26.50
2022-08-28T00:53:39.240Z,26.50
2022-08-28T00:56:10.342Z,26.50
2022-08-28T00:58:42.107Z,26.50
2022-08-28T01:01:11.052Z,26.50
2022-08-28T01:03:39.279Z,26.50
2022-08-28T01:06:09.285Z,26.50
2022-08-28T01:08:38.006Z,26.50
2022-08-28T01:11:06.523Z,26.50
2022-08-28T01:13:34.751Z,26.50
2022-08-28T01:16:04.065Z,27.00
2022-08-28T01:18:33.242Z,26.50
2022-08-28T01:21:06.420Z,26.50
2022-08-28T01:23:52.069Z,26.50
2022-08-28T01:26:20.389Z,26.50
2022-08-28T01:28:48.775Z,26.50
2022-08-28T01:31:17.223Z,26.50
2022-08-28T01:33:45.865Z,26.50
2022-08-28T01:36:14.165Z,26.50
2022-08-28T01:38:42.552Z,26.50
2022-08-28T01:41:12.233Z,26.50
2022-08-28T01:43:40.834Z,26.50
2022-08-28T01:46:09.977Z,26.40
2022-08-28T01:48:39.809Z,26.50
2022-08-28T01:51:08.018Z,26.50
2022-08-28T01:53:36.266Z,26.50
2022-08-28T01:56:06.299Z,26.50
2022-08-28T01:58:38.439Z,26.50
2022-08-28T02:01:10.723Z,26.50
2022-08-28T02:03:39.051Z,26.50
2022-08-28T02:06:07.578Z,26.50
2022-08-28T02:08:36.728Z,26.40
2022-08-28T02:11:06.311Z,26.50
2022-08-28T02:13:36.320Z,26.50
2022-08-28T02:16:05.966Z,26.50
2022-08-28T02:18:34.192Z,26.50
2022-08-28T02:21:02.392Z,26.40
2022-08-28T02:23:30.651Z,26.40
2022-08-28T02:25:58.810Z,26.50
2022-08-28T02:28:27.106Z,27.00
2022-08-28T02:30:56.697Z,26.40
2022-08-28T02:33:25.120Z,26.40
2022-08-28T02:35:53.552Z,26.40
2022-08-28T02:38:22.642Z,26.40
2022-08-28T02:40:52.869Z,26.40
2022-08-28T02:43:22.101Z,26.40
2022-08-28T02:45:50.445Z,26.40
2022-08-28T02:48:20.264Z,26.40
2022-08-28T02:50:48.573Z,26.40
2022-08-28T02:53:17.503Z,26.40
2022-08-28T02:55:45.857Z,26.40
2022-08-28T02:58:14.139Z,26.40
2022-08-28T03:00:42.608Z,26.40
2022-08-28T03:03:10.982Z,26.40
2022-08-28T03:05:40.552Z,26.40
2022-08-28T03:08:08.844Z,26.40
2022-08-28T03:10:36.999Z,26.40
2022-08-28T03:13:06.128Z,26.40
2022-08-28T03:15:34.464Z,26.40
2022-08-28T03:18:02.686Z,26.40
2022-08-28T03:20:36.385Z,26.40
2022-08-28T03:23:24.129Z,26.40
2022-08-28T03:25:59.914Z,26.40
2022-08-28T03:28:29.160Z,26.40
2022-08-28T03:30:57.896Z,26.40
2022-08-28T03:33:26.858Z,26.40
2022-08-28T03:35:55.283Z,26.40
2022-08-28T03:38:25.734Z,26.40
2022-08-28T03:40:54.434Z,26.40
2022-08-28T03:43:23.597Z,26.40
2022-08-28T03:45:53.295Z,26.40
2022-08-28T03:48:21.535Z,26.40
2022-08-28T03:50:50.030Z,26.40
2022-08-28T03:53:20.232Z,26.90
2022-08-28T03:55:50.877Z,26.40
2022-08-28T03:58:19.419Z,26.40
2022-08-28T04:00:47.747Z,26.40
2022-08-28T04:03:16.037Z,26.40
2022-08-28T04:05:45.040Z,26.40
2022-08-28T04:08:15.886Z,26.30
2022-08-28T04:10:44.110Z,26.40
2022-08-28T04:13:13.938Z,26.40
2022-08-28T04:15:42.213Z,26.40
2022-08-28T04:18:10.689Z,26.40
2022-08-28T04:20:39.305Z,26.40
2022-08-28T04:23:09.984Z,26.40
2022-08-28T04:25:40.994Z,26.40
2022-08-28T04:28:09.283Z,26.30
2022-08-28T04:30:38.877Z,26.30
2022-08-28T04:33:07.728Z,26.40
2022-08-28T04:35:35.907Z,26.30
2022-08-28T04:38:05.629Z,26.30
2022-08-28T04:40:34.013Z,26.40
2022-08-28T04:43:02.293Z,26.30
2022-08-28T04:45:30.714Z,26.40
2022-08-28T04:48:00.413Z,26.30
2022-08-28T04:50:34.128Z,26.40
2022-08-28T04:53:02.828Z,26.30
2022-08-28T04:55:53.950Z,26.40
2022-08-28T04:58:23.759Z,26.30
2022-08-28T05:00:54.328Z,26.30
2022-08-28T05:03:24.281Z,26.40
2022-08-28T05:05:53.981Z,26.30
2022-08-28T05:08:23.444Z,26.30
2022-08-28T05:10:53.348Z,26.60
2022-08-28T05:13:21.636Z,26.30
2022-08-28T05:15:51.387Z,26.30
2022-08-28T05:18:20.960Z,26.30
2022-08-28T05:20:50.517Z,26.30
2022-08-28T05:23:18.724Z,26.30
2022-08-28T05:25:50.634Z,26.30
2022-08-28T05:28:19.189Z,26.30
2022-08-28T05:30:47.405Z,26.30
2022-08-28T05:33:16.019Z,26.30
2022-08-28T05:35:45.281Z,26.30
2022-08-28T05:38:16.089Z,26.30
2022-08-28T05:40:44.975Z,26.30
2022-08-28T05:43:13.576Z,26.30
2022-08-28T05:45:41.928Z,26.30
2022-08-28T05:48:10.593Z,26.30
2022-08-28T05:50:39.226Z,26.30
2022-08-28T05:53:11.967Z,26.30
2022-08-28T05:55:42.348Z,26.30
2022-08-28T05:58:24.399Z,26.30
2022-08-28T06:00:52.546Z,26.30
2022-08-28T06:03:20.708Z,26.30
2022-08-28T06:05:55.830Z,26.30
2022-08-28T06:08:24.057Z,26.30
2022-08-28T06:10:53.647Z,26.30
2022-08-28T06:13:21.834Z,26.30
2022-08-28T06:15:50.291Z,26.30
2022-08-28T06:18:18.472Z,26.30
2022-08-28T06:20:47.236Z,26.30
2022-08-28T06:23:16.333Z,26.30
2022-08-28T06:25:53.574Z,26.30
2022-08-28T06:28:22.808Z,26.30
2022-08-28T06:31:18.024Z,26.30
2022-08-28T06:33:39.299Z,26.30
2022-08-28T06:36:08.611Z,26.30
2022-08-28T06:38:37.073Z,26.30
2022-08-28T06:41:10.287Z,26.30
2022-08-28T06:43:38.526Z,26.30
2022-08-28T06:46:07.042Z,26.30
2022-08-28T06:48:35.318Z,26.30
2022-08-28T06:51:06.470Z,26.30
2022-08-28T06:53:34.819Z,26.30
2022-08-28T06:56:06.594Z,26.30
2022-08-28T06:58:37.393Z,26.30
2022-08-28T07:01:06.751Z,26.30
2022-08-28T07:03:35.188Z,26.30
2022-08-28T07:06:04.365Z,26.20
2022-08-28T07:08:32.717Z,26.20
2022-08-28T07:11:10.717Z,26.30
2022-08-28T07:13:40.345Z,26.20
2022-08-28T07:16:08.747Z,26.30
2022-08-28T07:18:37.053Z,26.30
2022-08-28T07:21:08.061Z,26.20
2022-08-28T07:23:40.221Z,26.30
2022-08-28T07:26:09.255Z,26.20
2022-08-28T07:28:37.745Z,26.30
2022-08-28T07:31:11.684Z,26.20
2022-08-28T07:33:40.309Z,26.20
2022-08-28T07:36:12.289Z,26.20
2022-08-28T07:38:44.307Z,26.30
2022-08-28T07:41:16.081Z,26.20
2022-08-28T07:44:01.730Z,26.30
2022-08-28T07:46:31.439Z,26.20
2022-08-28T07:48:59.953Z,26.20
2022-08-28T07:51:29.444Z,26.20
2022-08-28T07:53:58.045Z,26.20
2022-08-28T07:56:30.972Z,26.20
2022-08-28T07:58:59.255Z,26.20
2022-08-28T08:01:31.474Z,26.20
2022-08-28T08:04:01.953Z,26.20
2022-08-28T08:06:34.040Z,26.20
2022-08-28T08:09:02.649Z,26.20
2022-08-28T08:11:32.424Z,26.20
2022-08-28T08:14:04.811Z,26.20
2022-08-28T08:16:34.833Z,26.20
2022-08-28T08:19:04.474Z,26.20
2022-08-28T08:21:32.847Z,26.20
2022-08-28T08:24:01.095Z,26.20
2022-08-28T08:26:29.633Z,26.20
2022-08-28T08:28:58.966Z,26.20
2022-08-28T08:31:29.649Z,26.20
2022-08-28T08:33:59.010Z,26.20
2022-08-28T08:36:28.604Z,26.20
2022-08-28T08:38:59.821Z,26.20
2022-08-28T08:41:30.395Z,26.10
2022-08-28T08:44:00.328Z,26.20
2022-08-28T08:46:33.674Z,26.20
2022-08-28T08:49:03.814Z,26.10
2022-08-28T08:51:41.336Z,26.20
2022-08-28T08:54:11.700Z,26.20
2022-08-28T08:56:40.654Z,26.20
2022-08-28T08:59:09.182Z,26.10
2022-08-28T09:01:40.283Z,26.20
2022-08-28T09:04:15.832Z,26.20
2022-08-28T09:06:50.933Z,26.20
2022-08-28T09:09:20.079Z,26.20
2022-08-28T09:11:56.552Z,26.10
2022-08-28T09:14:30.895Z,26.10
2022-08-28T09:16:59.084Z,26.10
2022-08-28T09:19:27.356Z,26.10
2022-08-28T09:21:56.957Z,26.10
2022-08-28T09:24:26.586Z,26.10
2022-08-28T09:26:56.763Z,26.10
2022-08-28T09:29:30.227Z,26.10
2022-08-28T09:31:58.651Z,26.10
2022-08-28T09:34:29.628Z,26.10
2022-08-28T09:36:59.710Z,26.10
2022-08-28T09:39:29.513Z,26.10
2022-08-28T09:42:20.811Z,26.10
2022-08-28T09:45:01.605Z,26.10
2022-08-28T09:47:51.068Z,26.10
2022-08-28T09:50:37.005Z,26.10
2022-08-28T09:53:21.122Z,26.10
2022-08-28T09:55:55.260Z,26.10
2022-08-28T09:58:24.105Z,26.10
2022-08-28T10:00:54.320Z,26.10
2022-08-28T10:03:24.803Z,26.10
2022-08-28T10:05:58.945Z,26.10
2022-08-28T10:08:35.543Z,26.50
2022-08-28T10:11:07.487Z,26.00
2022-08-28T10:13:36.963Z,26.00
2022-08-28T10:16:14.906Z,26.10
2022-08-28T10:18:45.583Z,26.00
2022-08-28T10:21:16.241Z,26.00
2022-08-28T10:23:54.553Z,26.00
2022-08-28T10:26:28.946Z,26.00
2022-08-28T10:29:04.179Z,26.00
2022-08-28T10:31:36.294Z,26.00
2022-08-28T10:34:11.862Z,26.00
2022-08-28T10:36:40.105Z,26.00
2022-08-28T10:39:19.058Z,26.00
2022-08-28T10:41:49.191Z,26.00
2022-08-28T10:44:21.017Z,26.00
2022-08-28T10:46:51.594Z,26.00
2022-08-28T10:49:24.399Z,26.00
2022-08-28T10:51:54.276Z,26.00
2022-08-28T10:54:27.285Z,26.00
2022-08-28T10:56:57.445Z,26.00
2022-08-28T10:59:25.766Z,26.00
2022-08-28T11:01:54.109Z,26.00
2022-08-28T11:04:25.702Z,25.90
2022-08-28T11:06:55.052Z,25.90
2022-08-28T11:09:31.917Z,25.90
2022-08-28T11:12:02.259Z,25.90
2022-08-28T11:14:32.825Z,25.90
2022-08-28T11:17:02.755Z,25.90
2022-08-28T11:20:04.734Z,25.90
2022-08-28T11:22:36.993Z,25.90
2022-08-28T11:25:16.147Z,25.90
2022-08-28T11:28:18.942Z,25.90
2022-08-28T11:30:48.165Z,25.90
2022-08-28T11:33:40.783Z,25.90
2022-08-28T11:36:11.277Z,25.90
2022-08-28T11:39:03.531Z,25.90
2022-08-28T11:41:33.792Z,25.90
2022-08-28T11:44:39.409Z,25.90
2022-08-28T11:47:44.879Z,25.90
2022-08-28T11:50:19.742Z,25.90
2022-08-28T11:53:17.705Z,25.90
2022-08-28T11:55:51.936Z,25.90
2022-08-28T11:58:24.489Z,25.90
2022-08-28T12:00:54.076Z,25.80
2022-08-28T12:03:27.629Z,25.90
2022-08-28T12:05:56.463Z,25.80
2022-08-28T12:09:11.250Z,25.90
2022-08-28T12:11:55.889Z,25.90
2022-08-28T12:15:02.747Z,25.90
2022-08-28T12:17:51.457Z,25.90
2022-08-28T12:20:36.920Z,25.90
2022-08-28T12:23:25.682Z,25.90
2022-08-28T12:26:00.307Z,25.90
2022-08-28T12:28:30.157Z,25.90
2022-08-28T12:31:00.446Z,25.90
2022-08-28T12:33:31.996Z,25.90
2022-08-28T12:36:02.063Z,25.90
2022-08-28T12:38:31.364Z,25.90
2022-08-28T12:41:01.615Z,25.90
2022-08-28T12:43:32.648Z,25.90
2022-08-28T12:46:02.177Z,25.90
2022-08-28T12:48:32.720Z,25.90
2022-08-28T12:51:03.407Z,25.90
2022-08-28T12:53:38.814Z,25.90
2022-08-28T12:56:08.779Z,25.90
2022-08-28T12:58:39.373Z,25.90
2022-08-28T13:01:09.667Z,25.90
2022-08-28T13:03:47.757Z,26.30
2022-08-28T13:06:23.689Z,25.90
2022-08-28T13:08:51.871Z,25.90
2022-08-28T13:11:20.147Z,25.90
2022-08-28T13:13:49.749Z,25.90
2022-08-28T13:16:37.007Z,25.90
2022-08-28T13:19:14.783Z,25.90
2022-08-28T13:21:52.618Z,25.90
2022-08-28T13:24:52.316Z,25.90
2022-08-28T13:27:22.971Z,25.90
2022-08-28T13:30:02.757Z,25.90
2022-08-28T13:32:31.726Z,25.90
2022-08-28T13:35:16.880Z,25.90
2022-08-28T13:37:47.110Z,25.90
2022-08-28T13:40:44.454Z,25.90
2022-08-28T13:43:07.156Z,25.90
2022-08-28T13:45:42.378Z,25.90
2022-08-28T13:48:13.109Z,25.90
2022-08-28T13:50:46.736Z,25.90
2022-08-28T13:53:18.266Z,25.80
2022-08-28T13:55:53.370Z,25.90
2022-08-28T13:58:22.092Z,25.80
2022-08-28T14:00:51.199Z,25.90
2022-08-28T14:03:38.354Z,25.80
2022-08-28T14:06:09.309Z,25.90
2022-08-28T14:08:37.507Z,25.90
2022-08-28T14:11:07.305Z,25.90
2022-08-28T14:13:36.011Z,25.90
2022-08-28T14:16:05.816Z,25.90
2022-08-28T14:18:34.741Z,25.90
2022-08-28T14:21:05.864Z,25.90
2022-08-28T14:23:35.544Z,25.80
2022-08-28T14:26:05.672Z,25.90
2022-08-28T14:28:33.892Z,25.90
2022-08-28T14:31:02.197Z,25.80
2022-08-28T14:33:30.386Z,25.80
2022-08-28T14:36:05.157Z,25.90
2022-08-28T14:38:33.451Z,25.90
2022-08-28T14:41:03.414Z,25.90
2022-08-28T14:43:31.667Z,25.80
2022-08-28T14:46:00.668Z,25.90
2022-08-28T14:48:29.386Z,25.90
2022-08-28T14:50:57.690Z,25.80
2022-08-28T14:53:25.993Z,25.90
2022-08-28T14:55:54.225Z,25.90
2022-08-28T14:58:23.842Z,25.80
2022-08-28T15:00:52.411Z,26.00
2022-08-28T15:03:21.779Z,26.10
2022-08-28T15:05:50.486Z,26.10
2022-08-28T15:08:19.305Z,26.20
2022-08-28T15:10:48.710Z,26.30
2022-08-28T15:13:16.931Z,26.30
2022-08-28T15:15:46.630Z,26.40
2022-08-28T15:18:14.894Z,26.40
2022-08-28T15:20:46.363Z,26.40
2022-08-28T15:23:14.961Z,26.50
2022-08-28T15:25:43.498Z,27.00
2022-08-28T15:28:11.751Z,26.50
2022-08-28T15:30:40.998Z,26.60
2022-08-28T15:33:10.793Z,26.60
2022-08-28T15:35:39.012Z,26.70
2022-08-28T15:38:07.843Z,26.70
2022-08-28T15:40:53.259Z,26.70
2022-08-28T15:43:21.542Z,26.70
2022-08-28T15:45:50.172Z,26.80
2022-08-28T15:48:19.959Z,26.80
2022-08-28T15:50:48.244Z,26.80
2022-08-28T15:53:18.256Z,26.90
2022-08-28T15:55:46.793Z,26.90
2022-08-28T15:58:15.006Z,27.00
2022-08-28T16:00:43.588Z,26.90
2022-08-28T16:03:11.841Z,27.00
2022-08-28T16:05:41.497Z,27.00
2022-08-28T16:08:11.183Z,27.00
2022-08-28T16:10:39.432Z,27.10
2022-08-28T16:13:07.646Z,27.00
2022-08-28T16:15:36.272Z,27.00
2022-08-28T16:18:08.876Z,27.00
2022-08-28T16:20:37.461Z,27.10
2022-08-28T16:23:07.281Z,27.10
2022-08-28T16:25:35.659Z,27.10
2022-08-28T16:28:04.524Z,27.20
2022-08-28T16:30:34.721Z,27.10
2022-08-28T16:33:03.788Z,27.10
2022-08-28T16:35:33.487Z,27.10
2022-08-28T16:38:06.749Z,27.20
2022-08-28T16:40:35.150Z,27.20
2022-08-28T16:43:03.452Z,27.20
2022-08-28T16:45:32.468Z,27.20
2022-08-28T16:48:00.720Z,27.20
2022-08-28T16:50:32.389Z,27.20
2022-08-28T16:53:03.639Z,27.30
2022-08-28T16:55:37.330Z,27.30
2022-08-28T16:58:05.905Z,27.30
2022-08-28T17:00:52.928Z,27.30
2022-08-28T17:03:26.663Z,27.30
2022-08-28T17:05:56.418Z,27.40
2022-08-28T17:08:24.748Z,27.40
2022-08-28T17:10:55.371Z,27.40
2022-08-28T17:13:23.610Z,27.40
2022-08-28T17:15:52.106Z,27.40
2022-08-28T17:18:20.406Z,27.40
2022-08-28T17:21:06.528Z,27.40
2022-08-28T17:23:36.970Z,27.40
2022-08-28T17:26:06.807Z,27.40
2022-08-28T17:28:35.238Z,27.40
2022-08-28T17:31:03.480Z,27.40
2022-08-28T17:33:32.164Z,27.40
2022-08-28T17:36:00.564Z,27.40
2022-08-28T17:38:28.832Z,27.40
2022-08-28T17:40:57.112Z,27.50
2022-08-28T17:43:27.218Z,27.50
2022-08-28T17:45:55.555Z,27.50
2022-08-28T17:48:24.997Z,27.50
2022-08-28T17:50:53.975Z,27.50
2022-08-28T17:53:27.161Z,27.50
2022-08-28T17:55:56.124Z,27.50
2022-08-28T17:58:24.332Z,27.50
2022-08-28T18:00:54.853Z,27.50
2022-08-28T18:03:23.609Z,27.50
2022-08-28T18:05:53.004Z,27.50
2022-08-28T18:08:21.308Z,27.60
2022-08-28T18:10:50.070Z,27.60
2022-08-28T18:13:18.286Z,27.60
2022-08-28T18:15:54.426Z,27.60
2022-08-28T18:18:26.944Z,27.50
2022-08-28T18:21:02.867Z,27.60
2022-08-28T18:23:31.237Z,27.60
2022-08-28T18:25:59.584Z,27.60
2022-08-28T18:28:29.339Z,27.60
2022-08-28T18:30:58.141Z,27.70
2022-08-28T18:33:27.838Z,27.60
2022-08-28T18:35:56.130Z,27.70
2022-08-28T18:38:25.567Z,27.60
2022-08-28T18:40:53.943Z,27.70
2022-08-28T18:43:22.600Z,27.70
2022-08-28T18:45:51.483Z,27.70
2022-08-28T18:48:20.191Z,27.70
2022-08-28T18:50:50.214Z,27.70
2022-08-28T18:53:19.872Z,27.70
2022-08-28T18:55:48.218Z,27.70
2022-08-28T18:58:20.326Z,27.70
2022-08-28T19:00:48.962Z,27.70
2022-08-28T19:03:17.582Z,27.70
2022-08-28T19:05:46.015Z,27.70
2022-08-28T19:08:15.863Z,27.70
2022-08-28T19:10:44.234Z,27.70
2022-08-28T19:13:12.495Z,27.70
2022-08-28T19:15:40.995Z,28.20
2022-08-28T19:18:09.283Z,27.70
2022-08-28T19:20:37.841Z,27.70
2022-08-28T19:23:06.166Z,27.80
2022-08-28T19:25:36.207Z,27.80
2022-08-28T19:28:05.024Z,27.80
2022-08-28T19:30:34.255Z,27.80
2022-08-28T19:33:02.666Z,27.80
2022-08-28T19:35:30.937Z,27.80
2022-08-28T19:37:59.214Z,27.80
2022-08-28T19:40:27.636Z,27.80
2022-08-28T19:42:57.567Z,27.80
2022-08-28T19:45:25.921Z,27.80
2022-08-28T19:47:54.172Z,27.80
2022-08-28T19:50:22.592Z,27.80
2022-08-28T19:52:50.935Z,27.80
2022-08-28T19:55:20.675Z,27.80
2022-08-28T19:57:49.866Z,27.80
2022-08-28T20:00:22.831Z,27.80
2022-08-28T20:02:51.703Z,27.80
2022-08-28T20:05:20.190Z,27.80
2022-08-28T20:07:48.804Z,27.90
2022-08-28T20:10:17.708Z,27.90
2022-08-28T20:12:48.597Z,27.90
2022-08-28T20:15:17.841Z,27.90
2022-08-28T20:17:49.744Z,27.90
2022-08-28T20:20:18.964Z,27.90
2022-08-28T20:22:47.217Z,27.90
2022-08-28T20:25:18.262Z,27.90
2022-08-28T20:27:46.569Z,27.90
2022-08-28T20:30:16.691Z,28.50
2022-08-28T20:32:44.988Z,28.00
2022-08-28T20:35:15.435Z,28.00
2022-08-28T20:37:44.941Z,28.00
2022-08-28T20:40:14.900Z,28.00
2022-08-28T20:42:43.180Z,28.00
2022-08-28T20:45:11.792Z,28.00
2022-08-28T20:47:40.282Z,28.00
2022-08-28T20:50:09.583Z,28.00
2022-08-28T20:52:39.429Z,28.00
2022-08-28T20:55:08.796Z,28.00
2022-08-28T20:57:37.260Z,28.00
2022-08-28T21:00:06.619Z,28.00
2022-08-28T21:02:35.686Z,28.00
2022-08-28T21:05:04.059Z,28.10
2022-08-28T21:07:33.522Z,28.50
2022-08-28T21:10:07.285Z,28.10
2022-08-28T21:12:36.430Z,28.10
2022-08-28T21:15:05.278Z,28.10
2022-08-28T21:17:33.716Z,28.10
2022-08-28T21:20:03.013Z,28.10
2022-08-28T21:22:33.046Z,28.00
2022-08-28T21:25:05.335Z,28.10
2022-08-28T21:27:33.708Z,28.10
2022-08-28T21:30:03.364Z,28.10
2022-08-28T21:32:32.728Z,28.00
2022-08-28T21:35:01.057Z,28.10
2022-08-28T21:37:29.307Z,28.10
2022-08-28T21:39:59.593Z,28.10
2022-08-28T21:42:29.556Z,28.10
2022-08-28T21:44:57.736Z,28.10
2022-08-28T21:47:26.268Z,28.10
2022-08-28T21:49:55.368Z,28.10
2022-08-28T21:52:25.371Z,28.10
2022-08-28T21:54:57.688Z,28.10
2022-08-28T21:57:26.014Z,28.10
2022-08-28T21:59:55.803Z,28.20
2022-08-28T22:02:24.289Z,28.20
2022-08-28T22:04:52.517Z,28.20
2022-08-28T22:07:21.786Z,28.20
2022-08-28T22:09:50.808Z,28.20
2022-08-28T22:12:19.049Z,28.20
2022-08-28T22:14:47.312Z,28.20
2022-08-28T22:17:17.167Z,28.20
2022-08-28T22:19:46.670Z,28.10
2022-08-28T22:22:32.956Z,28.20
2022-08-28T22:25:03.189Z,28.10
2022-08-28T22:27:32.010Z,28.20
2022-08-28T22:30:00.310Z,28.20
2022-08-28T22:32:29.984Z,28.20
2022-08-28T22:34:58.459Z,28.20
2022-08-28T22:37:26.823Z,28.20
2022-08-28T22:39:55.113Z,28.20
2022-08-28T22:42:23.426Z,28.20
2022-08-28T22:44:51.706Z,28.20
2022-08-28T22:47:19.845Z,28.20
2022-08-28T22:49:49.903Z,28.20
2022-08-28T22:52:18.157Z,28.20
2022-08-28T22:54:47.105Z,28.20
2022-08-28T22:57:20.658Z,28.20
2022-08-28T22:59:48.907Z,28.30
2022-08-28T23:02:18.460Z,28.20
2022-08-28T23:04:46.847Z,28.30
2022-08-28T23:07:21.715Z,28.20
2022-08-28T23:09:49.871Z,28.20
2022-08-28T23:12:18.121Z,28.20
2022-08-28T23:14:48.524Z,28.30
2022-08-28T23:17:17.929Z,28.30
2022-08-28T23:19:48.205Z,28.20
2022-08-28T23:22:17.416Z,28.20
2022-08-28T23:24:47.413Z,28.20
2022-08-28T23:27:35.483Z,28.20
2022-08-28T23:30:03.912Z,28.20
2022-08-28T23:32:33.784Z,28.20
2022-08-28T23:35:02.359Z,28.20
2022-08-28T23:37:35.837Z,28.20
2022-08-28T23:40:06.315Z,28.20
2022-08-28T23:42:34.526Z,28.30
2022-08-28T23:45:03.225Z,28.30
2022-08-28T23:47:33.407Z,28.30
2022-08-28T23:50:01.640Z,28.30
2022-08-28T23:52:30.847Z,28.30
2022-08-28T23:55:00.088Z,28.30
2022-08-28T23:57:30.766Z,28.30
2022-08-28T23:59:58.951Z,28.30
